sensor_id;sensor_type;location;lat;lon;timestamp;P1;durP1;ratioP1;P2;durP2;ratioP2
15814;SDS011;8008;50.024;8.172;2023-03-01T04:00:48;13.47;;;7.90;;
15814;SDS011;8008;50.024;8.172;2023-03-01T04:03:18;12.83;;;8.00;;
15814;SDS011;8008;50.024;8.172;2023-03-01T04:05:46;12.93;;;8.70;;
15814;SDS011;8008;50.024;8.172;2023-03-01T04:08:16;13.10;;;8.40;;
15814;SDS011;8008;50.024;8.172;2023-03-01T04:10:46;15.57;;;9.07;;
15814;SDS011;8008;50.024;8.172;2023-03-01T04:13:16;13.03;;;8.33;;
15814;SDS011;8008;50.024;8.172;2023-03-01T04:15:45;13.67;;;8.30;;
15814;SDS011;8008;50.024;8.172;2023-03-01T04:18:16;13.97;;;8.67;;
15814;SDS011;8008;50.024;8.172;2023-03-01T04:20:45;12.93;;;8.50;;
15814;SDS011;8008;50.024;8.172;2023-03-01T04:23:14;15.23;;;9.20;;
15814;SDS011;8008;50.024;8.172;2023-03-01T04:25:46;14.50;;;8.70;;
15814;SDS011;8008;50.024;8.172;2023-03-01T04:28:20;12.63;;;8.63;;
15814;SDS011;8008;50.024;8.172;2023-03-01T04:30:49;15.10;;;8.93;;
15814;SDS011;8008;50.024;8.172;2023-03-01T04:33:18;13.73;;;8.63;;
15814;SDS011;8008;50.024;8.172;2023-03-01T04:35:46;13.30;;;8.57;;
15814;SDS011;8008;50.024;8.172;2023-03-01T04:38:15;14.53;;;8.93;;
15814;SDS011;8008;50.024;8.172;2023-03-01T04:40:44;16.23;;;9.53;;
15814;SDS011;8008;50.024;8.172;2023-03-01T04:43:12;16.57;;;9.40;;
15814;SDS011;8008;50.024;8.172;2023-03-01T04:45:41;14.80;;;9.70;;
15814;SDS011;8008;50.024;8.172;2023-03-01T04:48:11;14.60;;;8.90;;
15814;SDS011;8008;50.024;8.172;2023-03-01T04:50:38;17.13;;;9.87;;
15814;SDS011;8008;50.024;8.172;2023-03-01T04:53:06;16.73;;;9.60;;
15814;SDS011;8008;50.024;8.172;2023-03-01T04:55:34;15.83;;;9.20;;
15814;SDS011;8008;50.024;8.172;2023-03-01T04:58:02;14.03;;;9.23;;
15814;SDS011;8008;50.024;8.172;2023-03-01T05:00:30;15.40;;;9.73;;
15814;SDS011;8008;50.024;8.172;2023-03-01T05:02:59;16.57;;;9.67;;
15814;SDS011;8008;50.024;8.172;2023-03-01T05:05:30;16.30;;;9.77;;
15814;SDS011;8008;50.024;8.172;2023-03-01T05:08:00;15.40;;;9.13;;
15814;SDS011;8008;50.024;8.172;2023-03-01T05:10:29;15.50;;;9.60;;
15814;SDS011;8008;50.024;8.172;2023-03-01T05:12:58;15.60;;;9.20;;
15814;SDS011;8008;50.024;8.172;2023-03-01T05:15:27;19.90;;;10.47;;
15814;SDS011;8008;50.024;8.172;2023-03-01T05:17:57;14.53;;;9.77;;
15814;SDS011;8008;50.024;8.172;2023-03-01T05:20:26;18.33;;;10.90;;
15814;SDS011;8008;50.024;8.172;2023-03-01T05:22:56;32.43;;;16.50;;
15814;SDS011;8008;50.024;8.172;2023-03-01T05:25:26;35.40;;;18.57;;
15814;SDS011;8008;50.024;8.172;2023-03-01T05:27:59;58.53;;;34.40;;
15814;SDS011;8008;50.024;8.172;2023-03-01T05:30:30;69.63;;;38.80;;
15814;SDS011;8008;50.024;8.172;2023-03-01T05:32:58;54.57;;;31.47;;
15814;SDS011;8008;50.024;8.172;2023-03-01T05:35:27;42.10;;;25.80;;
15814;SDS011;8008;50.024;8.172;2023-03-01T05:37:57;35.27;;;19.43;;
15814;SDS011;8008;50.024;8.172;2023-03-01T05:40:24;23.93;;;16.10;;
15814;SDS011;8008;50.024;8.172;2023-03-01T05:42:53;23.07;;;13.67;;
15814;SDS011;8008;50.024;8.172;2023-03-01T05:45:23;19.37;;;13.07;;
15814;SDS011;8008;50.024;8.172;2023-03-01T05:47:53;21.97;;;11.63;;
15814;SDS011;8008;50.024;8.172;2023-03-01T05:50:22;18.83;;;11.33;;
15814;SDS011;8008;50.024;8.172;2023-03-01T05:52:57;19.30;;;11.50;;
15814;SDS011;8008;50.024;8.172;2023-03-01T05:55:27;19.10;;;12.10;;
15814;SDS011;8008;50.024;8.172;2023-03-01T05:57:57;19.20;;;12.03;;
15814;SDS011;8008;50.024;8.172;2023-03-01T06:00:26;18.37;;;11.73;;
15814;SDS011;8008;50.024;8.172;2023-03-01T06:02:56;21.47;;;13.03;;
15814;SDS011;8008;50.024;8.172;2023-03-01T06:05:25;19.90;;;12.23;;
15814;SDS011;8008;50.024;8.172;2023-03-01T06:07:54;21.27;;;13.07;;
15814;SDS011;8008;50.024;8.172;2023-03-01T06:10:23;21.10;;;12.40;;
15814;SDS011;8008;50.024;8.172;2023-03-01T06:12:51;18.87;;;12.03;;
15814;SDS011;8008;50.024;8.172;2023-03-01T06:15:19;19.50;;;11.90;;
15814;SDS011;8008;50.024;8.172;2023-03-01T06:17:47;22.27;;;12.67;;
15814;SDS011;8008;50.024;8.172;2023-03-01T06:20:17;25.13;;;14.13;;
15814;SDS011;8008;50.024;8.172;2023-03-01T06:22:46;34.33;;;17.27;;
15814;SDS011;8008;50.024;8.172;2023-03-01T06:25:18;38.00;;;18.27;;
15814;SDS011;8008;50.024;8.172;2023-03-01T06:27:51;41.20;;;19.03;;
15814;SDS011;8008;50.024;8.172;2023-03-01T06:30:20;44.03;;;20.53;;
15814;SDS011;8008;50.024;8.172;2023-03-01T06:32:49;29.67;;;15.17;;
15814;SDS011;8008;50.024;8.172;2023-03-01T06:35:17;21.87;;;12.90;;
15814;SDS011;8008;50.024;8.172;2023-03-01T06:37:47;20.63;;;11.93;;
15814;SDS011;8008;50.024;8.172;2023-03-01T06:40:15;23.90;;;12.10;;
15814;SDS011;8008;50.024;8.172;2023-03-01T06:42:46;19.03;;;11.77;;
15814;SDS011;8008;50.024;8.172;2023-03-01T06:45:18;21.40;;;11.43;;
15814;SDS011;8008;50.024;8.172;2023-03-01T06:47:47;18.60;;;11.23;;
15814;SDS011;8008;50.024;8.172;2023-03-01T06:50:16;21.03;;;11.60;;
15814;SDS011;8008;50.024;8.172;2023-03-01T06:52:44;22.03;;;11.43;;
15814;SDS011;8008;50.024;8.172;2023-03-01T06:55:11;23.70;;;11.00;;
15814;SDS011;8008;50.024;8.172;2023-03-01T06:57:40;19.87;;;11.57;;
15814;SDS011;8008;50.024;8.172;2023-03-01T07:00:08;17.30;;;10.60;;
15814;SDS011;8008;50.024;8.172;2023-03-01T07:02:38;20.33;;;11.27;;
15814;SDS011;8008;50.024;8.172;2023-03-01T07:05:06;18.33;;;10.67;;
15814;SDS011;8008;50.024;8.172;2023-03-01T07:07:34;19.00;;;10.43;;
15814;SDS011;8008;50.024;8.172;2023-03-01T07:10:02;18.10;;;10.43;;
15814;SDS011;8008;50.024;8.172;2023-03-01T07:12:31;18.80;;;10.20;;
15814;SDS011;8008;50.024;8.172;2023-03-01T07:14:59;24.83;;;11.97;;
15814;SDS011;8008;50.024;8.172;2023-03-01T07:17:27;16.60;;;10.90;;
15814;SDS011;8008;50.024;8.172;2023-03-01T07:19:56;19.23;;;10.70;;
15814;SDS011;8008;50.024;8.172;2023-03-01T07:22:24;15.23;;;9.87;;
15814;SDS011;8008;50.024;8.172;2023-03-01T07:24:52;17.57;;;10.00;;
15814;SDS011;8008;50.024;8.172;2023-03-01T07:27:20;16.27;;;10.73;;
15814;SDS011;8008;50.024;8.172;2023-03-01T07:29:47;18.03;;;9.80;;
15814;SDS011;8008;50.024;8.172;2023-03-01T07:32:15;18.93;;;9.80;;
15814;SDS011;8008;50.024;8.172;2023-03-01T07:34:44;17.37;;;9.73;;
15814;SDS011;8008;50.024;8.172;2023-03-01T07:37:13;14.20;;;9.33;;
15814;SDS011;8008;50.024;8.172;2023-03-01T07:39:41;16.97;;;9.27;;
15814;SDS011;8008;50.024;8.172;2023-03-01T07:42:09;12.90;;;8.53;;
15814;SDS011;8008;50.024;8.172;2023-03-01T07:44:36;14.27;;;8.67;;
15814;SDS011;8008;50.024;8.172;2023-03-01T07:47:04;12.53;;;8.63;;
15814;SDS011;8008;50.024;8.172;2023-03-01T07:49:32;15.30;;;9.47;;
15814;SDS011;8008;50.024;8.172;2023-03-01T07:52:00;16.50;;;9.27;;
15814;SDS011;8008;50.024;8.172;2023-03-01T07:54:29;13.20;;;8.20;;
15814;SDS011;8008;50.024;8.172;2023-03-01T07:56:57;15.07;;;8.93;;
15814;SDS011;8008;50.024;8.172;2023-03-01T07:59:25;14.73;;;9.23;;
15814;SDS011;8008;50.024;8.172;2023-03-01T08:01:55;14.03;;;8.80;;
15814;SDS011;8008;50.024;8.172;2023-03-01T08:04:23;15.43;;;8.27;;
15814;SDS011;8008;50.024;8.172;2023-03-01T08:06:53;14.63;;;8.33;;
15814;SDS011;8008;50.024;8.172;2023-03-01T08:09:21;13.30;;;8.80;;
15814;SDS011;8008;50.024;8.172;2023-03-01T08:11:51;15.93;;;9.20;;
15814;SDS011;8008;50.024;8.172;2023-03-01T08:14:18;14.87;;;8.90;;
15814;SDS011;8008;50.024;8.172;2023-03-01T08:16:48;13.67;;;8.63;;
15814;SDS011;8008;50.024;8.172;2023-03-01T08:19:17;15.07;;;8.70;;
15814;SDS011;8008;50.024;8.172;2023-03-01T08:21:45;12.83;;;8.27;;
15814;SDS011;8008;50.024;8.172;2023-03-01T08:24:12;13.93;;;8.40;;
15814;SDS011;8008;50.024;8.172;2023-03-01T08:26:40;13.13;;;8.70;;
15814;SDS011;8008;50.024;8.172;2023-03-01T08:29:10;15.80;;;8.93;;
15814;SDS011;8008;50.024;8.172;2023-03-01T08:31:38;14.53;;;8.70;;
15814;SDS011;8008;50.024;8.172;2023-03-01T08:34:08;14.83;;;8.97;;
15814;SDS011;8008;50.024;8.172;2023-03-01T08:36:38;15.13;;;9.57;;
15814;SDS011;8008;50.024;8.172;2023-03-01T08:39:08;14.87;;;8.90;;
15814;SDS011;8008;50.024;8.172;2023-03-01T08:41:37;14.10;;;8.40;;
15814;SDS011;8008;50.024;8.172;2023-03-01T08:44:05;16.10;;;8.53;;
15814;SDS011;8008;50.024;8.172;2023-03-01T08:46:36;13.90;;;8.80;;
15814;SDS011;8008;50.024;8.172;2023-03-01T08:49:05;14.07;;;9.00;;
15814;SDS011;8008;50.024;8.172;2023-03-01T08:51:34;13.43;;;8.70;;
15814;SDS011;8008;50.024;8.172;2023-03-01T08:54:03;16.70;;;9.33;;
15814;SDS011;8008;50.024;8.172;2023-03-01T08:56:32;15.10;;;9.00;;
15814;SDS011;8008;50.024;8.172;2023-03-01T08:59:00;12.60;;;8.70;;
15814;SDS011;8008;50.024;8.172;2023-03-01T09:01:28;12.67;;;8.57;;
15814;SDS011;8008;50.024;8.172;2023-03-01T09:03:58;13.20;;;8.87;;
15814;SDS011;8008;50.024;8.172;2023-03-01T09:06:26;14.47;;;9.30;;
15814;SDS011;8008;50.024;8.172;2023-03-01T09:08:54;17.77;;;10.07;;
15814;SDS011;8008;50.024;8.172;2023-03-01T09:11:22;14.53;;;9.20;;
15814;SDS011;8008;50.024;8.172;2023-03-01T09:13:50;15.30;;;9.33;;
15814;SDS011;8008;50.024;8.172;2023-03-01T09:16:18;15.23;;;9.30;;
15814;SDS011;8008;50.024;8.172;2023-03-01T09:18:48;15.90;;;9.20;;
15814;SDS011;8008;50.024;8.172;2023-03-01T09:21:19;15.23;;;9.47;;
15814;SDS011;8008;50.024;8.172;2023-03-01T09:24:05;13.93;;;9.30;;
15814;SDS011;8008;50.024;8.172;2023-03-01T09:26:33;14.00;;;9.10;;
15814;SDS011;8008;50.024;8.172;2023-03-01T09:29:01;14.43;;;9.23;;
15814;SDS011;8008;50.024;8.172;2023-03-01T09:31:29;16.17;;;9.43;;
15814;SDS011;8008;50.024;8.172;2023-03-01T09:33:57;15.70;;;9.60;;
15814;SDS011;8008;50.024;8.172;2023-03-01T09:36:26;16.47;;;9.90;;
15814;SDS011;8008;50.024;8.172;2023-03-01T09:38:55;16.10;;;9.67;;
15814;SDS011;8008;50.024;8.172;2023-03-01T09:41:32;17.23;;;9.90;;
15814;SDS011;8008;50.024;8.172;2023-03-01T09:44:13;15.27;;;9.70;;
15814;SDS011;8008;50.024;8.172;2023-03-01T09:46:48;16.43;;;9.70;;
15814;SDS011;8008;50.024;8.172;2023-03-01T09:49:17;15.20;;;9.57;;
15814;SDS011;8008;50.024;8.172;2023-03-01T09:51:52;16.43;;;9.63;;
15814;SDS011;8008;50.024;8.172;2023-03-01T09:54:22;17.77;;;10.47;;
15814;SDS011;8008;50.024;8.172;2023-03-01T09:56:57;15.90;;;9.80;;
15814;SDS011;8008;50.024;8.172;2023-03-01T09:59:34;16.50;;;9.90;;
15814;SDS011;8008;50.024;8.172;2023-03-01T10:02:19;15.30;;;9.83;;
15814;SDS011;8008;50.024;8.172;2023-03-01T10:04:52;16.43;;;10.47;;
15814;SDS011;8008;50.024;8.172;2023-03-01T10:07:31;15.87;;;10.37;;
15814;SDS011;8008;50.024;8.172;2023-03-01T10:10:08;15.47;;;10.07;;
15814;SDS011;8008;50.024;8.172;2023-03-01T10:12:43;14.90;;;10.10;;
15814;SDS011;8008;50.024;8.172;2023-03-01T10:15:13;18.53;;;10.30;;
15814;SDS011;8008;50.024;8.172;2023-03-01T10:17:46;15.53;;;10.37;;
15814;SDS011;8008;50.024;8.172;2023-03-01T10:20:18;18.93;;;10.10;;
15814;SDS011;8008;50.024;8.172;2023-03-01T10:22:49;17.17;;;10.63;;
15814;SDS011;8008;50.024;8.172;2023-03-01T10:25:22;16.67;;;9.97;;
15814;SDS011;8008;50.024;8.172;2023-03-01T10:27:59;17.23;;;10.40;;
15814;SDS011;8008;50.024;8.172;2023-03-01T10:30:34;18.53;;;10.23;;
15814;SDS011;8008;50.024;8.172;2023-03-01T10:33:05;14.60;;;10.10;;
15814;SDS011;8008;50.024;8.172;2023-03-01T10:35:41;17.03;;;10.77;;
15814;SDS011;8008;50.024;8.172;2023-03-01T10:38:11;19.57;;;11.03;;
15814;SDS011;8008;50.024;8.172;2023-03-01T10:40:50;16.00;;;10.53;;
15814;SDS011;8008;50.024;8.172;2023-03-01T10:43:19;16.20;;;9.97;;
15814;SDS011;8008;50.024;8.172;2023-03-01T10:45:48;15.90;;;10.70;;
15814;SDS011;8008;50.024;8.172;2023-03-01T10:48:16;16.27;;;9.93;;
15814;SDS011;8008;50.024;8.172;2023-03-01T10:50:48;15.90;;;10.00;;
15814;SDS011;8008;50.024;8.172;2023-03-01T10:53:23;15.03;;;10.00;;
15814;SDS011;8008;50.024;8.172;2023-03-01T10:56:02;16.10;;;9.87;;
15814;SDS011;8008;50.024;8.172;2023-03-01T10:58:32;16.70;;;10.33;;
15814;SDS011;8008;50.024;8.172;2023-03-01T11:01:03;15.03;;;9.60;;
15814;SDS011;8008;50.024;8.172;2023-03-01T11:03:33;16.07;;;9.90;;
15814;SDS011;8008;50.024;8.172;2023-03-01T11:06:03;17.77;;;10.27;;
15814;SDS011;8008;50.024;8.172;2023-03-01T11:08:46;14.03;;;9.70;;
15814;SDS011;8008;50.024;8.172;2023-03-01T11:11:20;15.83;;;10.03;;
15814;SDS011;8008;50.024;8.172;2023-03-01T11:13:52;15.93;;;10.13;;
15814;SDS011;8008;50.024;8.172;2023-03-01T11:16:23;15.02;;;9.45;;
15814;SDS011;8008;50.024;8.172;2023-03-01T11:18:57;17.90;;;10.77;;
15814;SDS011;8008;50.024;8.172;2023-03-01T11:21:27;15.67;;;9.97;;
15814;SDS011;8008;50.024;8.172;2023-03-01T11:24:00;14.87;;;10.00;;
15814;SDS011;8008;50.024;8.172;2023-03-01T11:26:30;14.87;;;9.73;;
15814;SDS011;8008;50.024;8.172;2023-03-01T11:29:04;15.83;;;9.67;;
15814;SDS011;8008;50.024;8.172;2023-03-01T11:31:40;15.03;;;9.00;;
15814;SDS011;8008;50.024;8.172;2023-03-01T11:34:23;15.07;;;9.83;;
15814;SDS011;8008;50.024;8.172;2023-03-01T11:37:02;13.70;;;9.10;;
15814;SDS011;8008;50.024;8.172;2023-03-01T11:39:38;16.00;;;9.60;;
15814;SDS011;8008;50.024;8.172;2023-03-01T11:42:11;13.70;;;9.40;;
15814;SDS011;8008;50.024;8.172;2023-03-01T11:44:45;13.07;;;9.10;;
15814;SDS011;8008;50.024;8.172;2023-03-01T11:47:18;13.33;;;9.23;;
15814;SDS011;8008;50.024;8.172;2023-03-01T11:50:09;13.70;;;8.63;;
15814;SDS011;8008;50.024;8.172;2023-03-01T11:52:54;13.90;;;8.90;;
15814;SDS011;8008;50.024;8.172;2023-03-01T11:55:34;12.67;;;8.10;;
15814;SDS011;8008;50.024;8.172;2023-03-01T11:58:23;11.77;;;8.07;;
15814;SDS011;8008;50.024;8.172;2023-03-01T12:01:13;12.67;;;8.33;;
15814;SDS011;8008;50.024;8.172;2023-03-01T12:03:55;12.73;;;8.17;;
15814;SDS011;8008;50.024;8.172;2023-03-01T12:06:52;13.50;;;8.53;;
15814;SDS011;8008;50.024;8.172;2023-03-01T12:09:34;10.20;;;7.50;;
15814;SDS011;8008;50.024;8.172;2023-03-01T12:12:12;12.17;;;7.83;;
15814;SDS011;8008;50.024;8.172;2023-03-01T12:15:11;13.03;;;8.17;;
15814;SDS011;8008;50.024;8.172;2023-03-01T12:20:51;11.00;;;7.60;;
15814;SDS011;8008;50.024;8.172;2023-03-01T12:23:37;12.53;;;7.53;;
15814;SDS011;8008;50.024;8.172;2023-03-01T12:26:27;12.17;;;7.87;;
15814;SDS011;8008;50.024;8.172;2023-03-01T12:29:05;11.00;;;7.30;;
15814;SDS011;8008;50.024;8.172;2023-03-01T12:32:04;10.47;;;6.93;;
15814;SDS011;8008;50.024;8.172;2023-03-01T12:34:54;8.93;;;6.57;;
15814;SDS011;8008;50.024;8.172;2023-03-01T12:37:33;12.35;;;7.20;;
15814;SDS011;8008;50.024;8.172;2023-03-01T12:40:15;10.83;;;7.47;;
15814;SDS011;8008;50.024;8.172;2023-03-01T12:43:08;11.10;;;6.87;;
15814;SDS011;8008;50.024;8.172;2023-03-01T12:46:01;12.57;;;7.00;;
15814;SDS011;8008;50.024;8.172;2023-03-01T12:48:50;12.80;;;7.10;;
15814;SDS011;8008;50.024;8.172;2023-03-01T12:51:30;8.50;;;6.07;;
15814;SDS011;8008;50.024;8.172;2023-03-01T12:54:01;9.90;;;6.37;;
15814;SDS011;8008;50.024;8.172;2023-03-01T12:56:38;11.47;;;6.10;;
15814;SDS011;8008;50.024;8.172;2023-03-01T12:59:09;10.40;;;6.27;;
15814;SDS011;8008;50.024;8.172;2023-03-01T13:01:45;10.70;;;6.17;;
15814;SDS011;8008;50.024;8.172;2023-03-01T13:04:21;9.87;;;6.63;;
15814;SDS011;8008;50.024;8.172;2023-03-01T13:07:05;11.83;;;6.67;;
15814;SDS011;8008;50.024;8.172;2023-03-01T13:09:45;10.30;;;7.03;;
15814;SDS011;8008;50.024;8.172;2023-03-01T13:12:41;9.77;;;6.17;;
15814;SDS011;8008;50.024;8.172;2023-03-01T13:15:26;8.20;;;5.50;;
15814;SDS011;8008;50.024;8.172;2023-03-01T13:17:57;8.07;;;6.13;;
15814;SDS011;8008;50.024;8.172;2023-03-01T13:20:27;8.60;;;5.80;;
15814;SDS011;8008;50.024;8.172;2023-03-01T13:23:01;6.90;;;5.38;;
15814;SDS011;8008;50.024;8.172;2023-03-01T13:26:02;10.63;;;5.47;;
15814;SDS011;8008;50.024;8.172;2023-03-01T13:28:41;8.73;;;5.73;;
15814;SDS011;8008;50.024;8.172;2023-03-01T13:34:42;8.10;;;5.73;;
15814;SDS011;8008;50.024;8.172;2023-03-01T13:37:23;9.20;;;6.53;;
15814;SDS011;8008;50.024;8.172;2023-03-01T13:39:56;9.87;;;6.30;;
15814;SDS011;8008;50.024;8.172;2023-03-01T13:42:32;9.40;;;6.27;;
15814;SDS011;8008;50.024;8.172;2023-03-01T13:45:12;10.23;;;6.50;;
15814;SDS011;8008;50.024;8.172;2023-03-01T13:47:56;8.48;;;6.10;;
15814;SDS011;8008;50.024;8.172;2023-03-01T13:50:29;12.70;;;6.50;;
15814;SDS011;8008;50.024;8.172;2023-03-01T13:53:04;8.50;;;6.05;;
15814;SDS011;8008;50.024;8.172;2023-03-01T13:55:37;8.90;;;6.27;;
15814;SDS011;8008;50.024;8.172;2023-03-01T13:58:15;9.07;;;6.37;;
15814;SDS011;8008;50.024;8.172;2023-03-01T14:00:47;10.33;;;6.33;;
15814;SDS011;8008;50.024;8.172;2023-03-01T14:03:21;9.57;;;6.27;;
15814;SDS011;8008;50.024;8.172;2023-03-01T14:06:01;8.97;;;5.63;;
15814;SDS011;8008;50.024;8.172;2023-03-01T14:08:41;9.90;;;6.13;;
15814;SDS011;8008;50.024;8.172;2023-03-01T14:11:20;10.10;;;5.90;;
15814;SDS011;8008;50.024;8.172;2023-03-01T14:14:10;7.28;;;5.25;;
15814;SDS011;8008;50.024;8.172;2023-03-01T14:16:52;8.43;;;5.70;;
15814;SDS011;8008;50.024;8.172;2023-03-01T14:19:25;8.68;;;5.75;;
15814;SDS011;8008;50.024;8.172;2023-03-01T14:22:02;9.38;;;5.90;;
15814;SDS011;8008;50.024;8.172;2023-03-01T14:24:42;6.47;;;5.20;;
15814;SDS011;8008;50.024;8.172;2023-03-01T14:27:15;7.78;;;5.50;;
15814;SDS011;8008;50.024;8.172;2023-03-01T14:29:45;9.02;;;5.47;;
15814;SDS011;8008;50.024;8.172;2023-03-01T14:32:24;9.00;;;5.03;;
15814;SDS011;8008;50.024;8.172;2023-03-01T14:34:54;7.65;;;5.68;;
15814;SDS011;8008;50.024;8.172;2023-03-01T14:37:26;8.18;;;5.78;;
15814;SDS011;8008;50.024;8.172;2023-03-01T14:39:55;8.13;;;5.72;;
15814;SDS011;8008;50.024;8.172;2023-03-01T14:42:25;7.78;;;6.30;;
15814;SDS011;8008;50.024;8.172;2023-03-01T14:44:56;8.05;;;6.50;;
15814;SDS011;8008;50.024;8.172;2023-03-01T14:47:26;7.93;;;6.40;;
15814;SDS011;8008;50.024;8.172;2023-03-01T14:49:57;8.50;;;6.38;;
15814;SDS011;8008;50.024;8.172;2023-03-01T14:52:34;7.13;;;5.90;;
15814;SDS011;8008;50.024;8.172;2023-03-01T14:55:05;9.10;;;6.47;;
15814;SDS011;8008;50.024;8.172;2023-03-01T14:57:42;9.10;;;6.85;;
15814;SDS011;8008;50.024;8.172;2023-03-01T15:00:13;8.95;;;6.85;;
15814;SDS011;8008;50.024;8.172;2023-03-01T15:02:45;8.07;;;7.28;;
15814;SDS011;8008;50.024;8.172;2023-03-01T15:05:16;9.00;;;6.50;;
15814;SDS011;8008;50.024;8.172;2023-03-01T15:07:50;7.47;;;6.65;;
15814;SDS011;8008;50.024;8.172;2023-03-01T15:10:21;7.15;;;6.45;;
15814;SDS011;8008;50.024;8.172;2023-03-01T15:12:50;8.82;;;7.30;;
15814;SDS011;8008;50.024;8.172;2023-03-01T15:15:20;8.25;;;7.35;;
15814;SDS011;8008;50.024;8.172;2023-03-01T15:17:59;8.10;;;6.80;;
15814;SDS011;8008;50.024;8.172;2023-03-01T15:20:29;7.75;;;6.93;;
15814;SDS011;8008;50.024;8.172;2023-03-01T15:23:03;8.52;;;7.50;;
15814;SDS011;8008;50.024;8.172;2023-03-01T15:25:31;7.88;;;7.03;;
15814;SDS011;8008;50.024;8.172;2023-03-01T15:28:00;8.13;;;7.28;;
15814;SDS011;8008;50.024;8.172;2023-03-01T15:30:31;8.77;;;6.65;;
15814;SDS011;8008;50.024;8.172;2023-03-01T15:33:16;16.25;;;9.32;;
15814;SDS011;8008;50.024;8.172;2023-03-01T15:35:46;10.65;;;7.72;;
15814;SDS011;8008;50.024;8.172;2023-03-01T15:38:26;11.77;;;7.28;;
15814;SDS011;8008;50.024;8.172;2023-03-01T15:40:58;8.65;;;6.82;;
15814;SDS011;8008;50.024;8.172;2023-03-01T15:43:37;9.77;;;6.90;;
15814;SDS011;8008;50.024;8.172;2023-03-01T15:46:23;8.52;;;6.30;;
15814;SDS011;8008;50.024;8.172;2023-03-01T15:48:56;9.50;;;6.22;;
15814;SDS011;8008;50.024;8.172;2023-03-01T15:51:30;8.65;;;6.22;;
15814;SDS011;8008;50.024;8.172;2023-03-01T15:54:02;8.50;;;5.75;;
15814;SDS011;8008;50.024;8.172;2023-03-01T15:56:33;7.82;;;5.63;;
15814;SDS011;8008;50.024;8.172;2023-03-01T15:59:01;8.88;;;5.57;;
15814;SDS011;8008;50.024;8.172;2023-03-01T16:01:30;8.50;;;5.85;;
15814;SDS011;8008;50.024;8.172;2023-03-01T16:04:00;9.30;;;5.97;;
15814;SDS011;8008;50.024;8.172;2023-03-01T16:06:28;9.00;;;5.93;;
15814;SDS011;8008;50.024;8.172;2023-03-01T16:08:56;10.00;;;6.20;;
15814;SDS011;8008;50.024;8.172;2023-03-01T16:11:25;9.75;;;6.03;;
15814;SDS011;8008;50.024;8.172;2023-03-01T16:13:53;8.25;;;6.10;;
15814;SDS011;8008;50.024;8.172;2023-03-01T16:16:21;9.60;;;6.25;;
15814;SDS011;8008;50.024;8.172;2023-03-01T16:18:49;10.90;;;6.32;;
15814;SDS011;8008;50.024;8.172;2023-03-01T16:21:22;11.27;;;6.80;;
15814;SDS011;8008;50.024;8.172;2023-03-01T16:23:51;10.95;;;6.18;;
15814;SDS011;8008;50.024;8.172;2023-03-01T16:26:19;9.77;;;6.07;;
15814;SDS011;8008;50.024;8.172;2023-03-01T16:28:49;9.38;;;5.97;;
15814;SDS011;8008;50.024;8.172;2023-03-01T16:31:18;8.93;;;5.93;;
15814;SDS011;8008;50.024;8.172;2023-03-01T16:33:47;9.98;;;6.60;;
15814;SDS011;8008;50.024;8.172;2023-03-01T16:36:18;10.13;;;6.57;;
15814;SDS011;8008;50.024;8.172;2023-03-01T16:38:49;10.20;;;6.32;;
15814;SDS011;8008;50.024;8.172;2023-03-01T16:41:19;9.15;;;6.22;;
15814;SDS011;8008;50.024;8.172;2023-03-01T16:43:49;10.90;;;6.43;;
15814;SDS011;8008;50.024;8.172;2023-03-01T16:46:18;10.33;;;5.97;;
15814;SDS011;8008;50.024;8.172;2023-03-01T16:48:47;9.77;;;6.20;;
15814;SDS011;8008;50.024;8.172;2023-03-01T16:51:16;9.17;;;6.27;;
15814;SDS011;8008;50.024;8.172;2023-03-01T16:53:45;10.15;;;6.38;;
15814;SDS011;8008;50.024;8.172;2023-03-01T16:56:13;9.87;;;6.67;;
15814;SDS011;8008;50.024;8.172;2023-03-01T16:58:41;8.57;;;5.70;;
15814;SDS011;8008;50.024;8.172;2023-03-01T17:01:12;10.82;;;6.20;;
15814;SDS011;8008;50.024;8.172;2023-03-01T17:03:42;11.07;;;6.60;;
15814;SDS011;8008;50.024;8.172;2023-03-01T17:06:13;11.53;;;6.70;;
15814;SDS011;8008;50.024;8.172;2023-03-01T17:08:42;9.90;;;6.47;;
15814;SDS011;8008;50.024;8.172;2023-03-01T17:11:11;9.97;;;6.70;;
15814;SDS011;8008;50.024;8.172;2023-03-01T17:13:40;9.87;;;6.53;;
15814;SDS011;8008;50.024;8.172;2023-03-01T17:16:10;11.20;;;6.30;;
15814;SDS011;8008;50.024;8.172;2023-03-01T17:18:42;11.90;;;6.60;;
15814;SDS011;8008;50.024;8.172;2023-03-01T17:21:10;13.53;;;6.97;;
15814;SDS011;8008;50.024;8.172;2023-03-01T17:23:41;10.20;;;6.70;;
15814;SDS011;8008;50.024;8.172;2023-03-01T17:26:10;13.07;;;7.70;;
15814;SDS011;8008;50.024;8.172;2023-03-01T17:28:39;13.23;;;7.57;;
15814;SDS011;8008;50.024;8.172;2023-03-01T17:31:08;10.87;;;6.33;;
15814;SDS011;8008;50.024;8.172;2023-03-01T17:33:38;11.23;;;6.43;;
15814;SDS011;8008;50.024;8.172;2023-03-01T17:36:06;9.93;;;6.27;;
15814;SDS011;8008;50.024;8.172;2023-03-01T17:38:34;13.07;;;6.70;;
15814;SDS011;8008;50.024;8.172;2023-03-01T17:41:02;14.87;;;7.93;;
15814;SDS011;8008;50.024;8.172;2023-03-01T17:43:31;12.48;;;6.93;;
15814;SDS011;8008;50.024;8.172;2023-03-01T17:46:00;10.90;;;6.80;;
15814;SDS011;8008;50.024;8.172;2023-03-01T17:48:28;12.17;;;6.73;;
15814;SDS011;8008;50.024;8.172;2023-03-01T17:50:58;9.90;;;6.30;;
15814;SDS011;8008;50.024;8.172;2023-03-01T17:53:25;11.02;;;7.18;;
15814;SDS011;8008;50.024;8.172;2023-03-01T17:55:58;12.90;;;7.10;;
15814;SDS011;8008;50.024;8.172;2023-03-01T17:58:27;12.00;;;6.07;;
15814;SDS011;8008;50.024;8.172;2023-03-01T18:00:55;9.53;;;6.23;;
15814;SDS011;8008;50.024;8.172;2023-03-01T18:03:32;10.47;;;6.37;;
15814;SDS011;8008;50.024;8.172;2023-03-01T18:06:02;10.10;;;6.47;;
15814;SDS011;8008;50.024;8.172;2023-03-01T18:08:38;9.43;;;6.63;;
15814;SDS011;8008;50.024;8.172;2023-03-01T18:11:05;10.53;;;6.10;;
15814;SDS011;8008;50.024;8.172;2023-03-01T18:13:34;9.30;;;6.33;;
15814;SDS011;8008;50.024;8.172;2023-03-01T18:16:03;10.33;;;6.83;;
15814;SDS011;8008;50.024;8.172;2023-03-01T18:18:32;17.00;;;8.97;;
15814;SDS011;8008;50.024;8.172;2023-03-01T18:21:01;11.33;;;6.57;;
15814;SDS011;8008;50.024;8.172;2023-03-01T18:23:30;11.53;;;6.83;;
15814;SDS011;8008;50.024;8.172;2023-03-01T18:25:59;11.57;;;6.47;;
15814;SDS011;8008;50.024;8.172;2023-03-01T18:28:29;12.27;;;6.80;;
15814;SDS011;8008;50.024;8.172;2023-03-01T18:30:58;11.47;;;6.60;;
15814;SDS011;8008;50.024;8.172;2023-03-01T18:33:26;10.27;;;6.73;;
15814;SDS011;8008;50.024;8.172;2023-03-01T18:35:54;10.80;;;6.93;;
15814;SDS011;8008;50.024;8.172;2023-03-01T18:38:24;11.93;;;7.87;;
15814;SDS011;8008;50.024;8.172;2023-03-01T18:40:52;12.07;;;7.30;;
15814;SDS011;8008;50.024;8.172;2023-03-01T18:43:20;13.67;;;7.00;;
15814;SDS011;8008;50.024;8.172;2023-03-01T18:45:55;12.90;;;7.27;;
15814;SDS011;8008;50.024;8.172;2023-03-01T18:48:24;9.87;;;6.50;;
15814;SDS011;8008;50.024;8.172;2023-03-01T18:50:52;11.83;;;6.90;;
15814;SDS011;8008;50.024;8.172;2023-03-01T18:53:20;10.53;;;6.97;;
15814;SDS011;8008;50.024;8.172;2023-03-01T18:55:49;11.17;;;6.87;;
15814;SDS011;8008;50.024;8.172;2023-03-01T18:58:17;13.10;;;7.30;;
15814;SDS011;8008;50.024;8.172;2023-03-01T19:00:45;11.03;;;6.80;;
15814;SDS011;8008;50.024;8.172;2023-03-01T19:03:13;13.40;;;7.10;;
15814;SDS011;8008;50.024;8.172;2023-03-01T19:05:41;12.20;;;6.57;;
15814;SDS011;8008;50.024;8.172;2023-03-01T19:08:08;12.07;;;6.80;;
15814;SDS011;8008;50.024;8.172;2023-03-01T19:10:36;11.77;;;6.93;;
15814;SDS011;8008;50.024;8.172;2023-03-01T19:13:05;13.40;;;7.50;;
15814;SDS011;8008;50.024;8.172;2023-03-01T19:15:33;13.10;;;7.20;;
15814;SDS011;8008;50.024;8.172;2023-03-01T19:18:01;12.50;;;7.20;;
15814;SDS011;8008;50.024;8.172;2023-03-01T19:20:31;10.50;;;6.53;;
15814;SDS011;8008;50.024;8.172;2023-03-01T19:22:59;10.80;;;7.07;;